Flight Track Log - Related Links

Times and Time Zones

All times are in EDT time to prevent confusion due to time zone crossing. See the FFT268 flight status page for this flight to view local times or setup timezone preferences in your user account.

Time Position Orientation Groundspeed Altitude Reporting Facility
EDT Latitude Longitude Course Direction KTS MPH feet Rate Location/Type
Wed 10:23:55 AM 33.6472 -117.8844 90° East 146 168 1,600  Level Los Angeles Center
Wed 10:24:57 AM 33.6058 -117.8931 190° South 151 174 3,300 1,258 Climbing Los Angeles Center
Wed 10:25:59 AM 33.5489 -117.8850 173° South 197 227 4,200 1,645 Climbing Los Angeles Center
Wed 10:27:01 AM 33.5311 -117.8011 104° East 262 302 6,700 2,565 Climbing Los Angeles Center
Wed 10:28:03 AM 33.5475 -117.7067 78° East 281 323 9,500 2,244 Climbing Los Angeles Center
Wed 10:29:00 AM 33.5833 -117.2557 90° East  Level FlightAware Approximate
Wed 10:29:04 AM 33.5636 -117.6047 79° East 297 342 11,300  Level Los Angeles Center
Wed 10:30:06 AM 33.5844 -117.4717 79° East 334 384 14,500 2,613 Climbing Los Angeles Center
Wed 10:31:08 AM 33.5881 -117.3553 88° East 350 403 16,700 1,742 Climbing Los Angeles Center
Wed 10:32:10 AM 33.5939 -117.2350 87° East 358 412 18,100 1,645 Climbing Los Angeles Center
Wed 10:33:12 AM 33.5983 -117.1086 88° East 373 429 20,100 1,742 Climbing Los Angeles Center
Wed 10:34:14 AM 33.6025 -116.9794 88° East 384 442 21,700 1,403 Climbing Los Angeles Center
Wed 10:35:16 AM 33.6072 -116.8417 88° East 397 457 23,000 629 Climbing Los Angeles Center
Wed 10:36:18 AM 33.6125 -116.7072 87° East 402 463 23,000 532 Level Los Angeles Center
Wed 10:37:20 AM 33.6158 -116.5444 89° East 405 466 24,100 1,210 Climbing Los Angeles Center
Wed 10:38:22 AM 33.6203 -116.4036 88° East 420 483 25,500 1,113 Climbing Los Angeles Center
Wed 10:39:24 AM 33.6247 -116.2894 87° East 425 489 26,400 1,258 Climbing Los Angeles Center
Wed 10:40:26 AM 33.6517 -116.1158 79° East 440 506 28,100 1,306 Climbing Los Angeles Center
Wed 10:41:28 AM 33.7206 -115.9883 57° Northeast 451 519 29,100 968 Climbing Los Angeles Center
Wed 10:42:30 AM 33.7917 -115.8586 57° Northeast 463 533 30,100 968 Climbing Los Angeles Center
Wed 10:43:32 AM 33.8644 -115.7236 57° Northeast 477 549 31,100 1,210 Climbing Los Angeles Center
Wed 10:44:34 AM 33.9511 -115.5614 57° Northeast 481 554 32,600 1,258 Climbing Los Angeles Center
Wed 10:45:36 AM 34.0236 -115.4258 57° Northeast 481 554 33,700 1,161 Climbing Los Angeles Center
Wed 10:46:38 AM 34.0950 -115.2894 58° Northeast 482 555 35,000 1,065 Climbing Los Angeles Center
Wed 10:47:40 AM 34.1686 -115.1550 56° Northeast 481 554 35,900 823 Climbing Los Angeles Center
Wed 10:48:42 AM 34.2403 -115.0183 58° Northeast 481 554 36,700 871 Climbing Los Angeles Center
Wed 10:49:44 AM 34.3136 -114.8825 57° Northeast 482 555 37,700 1,073 Climbing Los Angeles Center
Wed 10:50:45 AM 34.3975 -114.7203 58° Northeast 477 549 38,900 634 Climbing Los Angeles Center
Wed 10:51:47 AM 34.4678 -114.5869 57° Northeast 472 543 39,000 48 Climbing Los Angeles Center
Wed 10:52:49 AM 34.5375 -114.4539 58° Northeast 469 540 39,000  Level Los Angeles Center
Wed 10:53:51 AM 34.6058 -114.3214 58° Northeast 465 535 39,000  Level Los Angeles Center
Wed 10:54:53 AM 34.6800 -114.1783 58° Northeast 468 539 39,000  Level Los Angeles Center
Wed 10:55:55 AM 34.7483 -114.0447 58° Northeast 466 536 39,000  Level Los Angeles Center
Wed 10:56:57 AM 34.8142 -113.9178 58° Northeast 465 535 39,000  Level Los Angeles Center
Wed 10:57:59 AM 34.8958 -113.7572 58° Northeast 467 537 39,000  Level Los Angeles Center
Wed 10:59:01 AM 34.9647 -113.6236 58° Northeast 468 539 39,000  Level Los Angeles Center
Wed 11:00:03 AM 35.0336 -113.4883 58° Northeast 471 542 39,000  Level Los Angeles Center
Wed 11:01:05 AM 35.1011 -113.3533 59° Northeast 471 542 39,000  Level Los Angeles Center
Wed 11:02:07 AM 35.1731 -113.2103 58° Northeast 466 536 39,000  Level Los Angeles Center
Wed 11:03:09 AM 35.2403 -113.0753 59° Northeast 465 535 39,000  Level Los Angeles Center
Wed 11:04:11 AM 35.3128 -112.9297 59° Northeast 468 539 39,000  Level Los Angeles Center
Wed 11:05:13 AM 35.3814 -112.7936 58° Northeast 470 541 39,000  Level Los Angeles Center
Wed 11:06:15 AM 35.4506 -112.6531 59° Northeast 478 550 39,000  Level Los Angeles Center
Wed 11:07:18 AM 35.5267 -112.4975 59° Northeast 468 539 39,000  Level Los Angeles Center
Wed 11:08:20 AM 35.5939 -112.3625 58° Northeast 466 536 39,000  Level Los Angeles Center
Wed 11:09:22 AM 35.6597 -112.2278 59° Northeast 465 535 39,000  Level Los Angeles Center
Wed 11:10:24 AM 35.7261 -112.0917 59° Northeast 465 535 39,000  Level Los Angeles Center
Wed 11:11:26 AM 35.8050 -111.9289 59° Northeast 465 535 39,000  Level Los Angeles Center
Wed 11:12:28 AM 35.8700 -111.7919 60° Northeast 465 535 39,000  Level Los Angeles Center
Wed 11:13:47 AM 35.9544 -111.6211 59° Northeast 467 537 39,000  Level Denver Center
Wed 11:14:49 AM 36.0200 -111.4811 60° Northeast 470 541 39,000  Level Denver Center
Wed 11:15:51 AM 36.0861 -111.3431 59° Northeast 470 541 39,000  Level Denver Center
Wed 11:16:36 AM 36.1414 -111.2328 58° Northeast 468 539 39,000  Level Los Angeles Center
Wed 11:17:38 AM 36.2175 -111.1047 54° Northeast 465 535 39,000  Level Los Angeles Center
Wed 11:18:41 AM 36.3078 -110.9489 54° Northeast 465 535 39,000  Level Los Angeles Center
Wed 11:19:59 AM 36.3986 -110.7947 54° Northeast 467 537 39,000  Level Denver Center
Wed 11:21:01 AM 36.4731 -110.6650 54° Northeast 465 535 39,000  Level Denver Center
Wed 11:22:03 AM 36.5675 -110.5133 52° Northeast 463 533 39,000  Level Denver Center
Wed 11:23:05 AM 36.6508 -110.3914 50° Northeast 462 532 39,000  Level Denver Center
Wed 11:24:07 AM 36.7331 -110.2678 50° Northeast 464 534 39,000  Level Denver Center
Wed 11:25:09 AM 36.8150 -110.1433 51° Northeast 461 531 39,000  Level Denver Center
Wed 11:26:11 AM 36.9081 -110.0047 50° Northeast 465 535 39,000  Level Denver Center
Wed 11:27:13 AM 36.9856 -109.8875 50° Northeast 461 531 39,000  Level Denver Center
Wed 11:28:15 AM 37.0644 -109.7678 50° Northeast 462 532 39,000  Level Denver Center
Wed 11:29:17 AM 37.1567 -109.6286 50° Northeast 465 535 39,000  Level Denver Center
Wed 11:30:20 AM 37.2333 -109.5061 52° Northeast 464 534 39,000  Level Denver Center
Wed 11:31:22 AM 37.3175 -109.3569 55° Northeast 465 535 39,000  Level Denver Center
Wed 11:32:24 AM 37.3892 -109.2294 55° Northeast 466 536 39,000  Level Denver Center
Wed 11:33:26 AM 37.4739 -109.0806 54° Northeast 467 537 39,000  Level Denver Center
Wed 11:34:28 AM 37.5458 -108.9531 55° Northeast 465 535 39,000  Level Denver Center
Wed 11:35:30 AM 37.6294 -108.8028 55° Northeast 468 539 39,000  Level Denver Center
Wed 11:36:32 AM 37.7011 -108.6733 55° Northeast 469 540 39,000  Level Denver Center
Wed 11:37:34 AM 37.7722 -108.5447 55° Northeast 466 536 39,000  Level Denver Center
Wed 11:38:36 AM 37.8553 -108.3972 54° Northeast 462 532 39,000  Level Denver Center
Wed 11:39:38 AM 37.9272 -108.2656 55° Northeast 470 541 39,000  Level Denver Center
Wed 11:40:40 AM 38.0114 -108.1133 55° Northeast 472 543 39,000 48 Level Denver Center
Wed 11:41:42 AM 38.0908 -107.9656 56° Northeast 476 548 39,100  Climbing Denver Center
Wed 11:42:44 AM 38.1617 -107.8347 55° Northeast 472 543 39,000 -48 Descending Denver Center
Wed 11:43:46 AM 38.2442 -107.6839 55° Northeast 467 537 39,000 -194 Level Denver Center
Wed 11:44:48 AM 38.3147 -107.5553 55° Northeast 466 536 38,600 -484 Descending Denver Center
Wed 11:45:50 AM 38.3958 -107.4022 56° Northeast 468 539 38,000 -484 Descending Denver Center
Wed 11:46:52 AM 38.4658 -107.2708 56° Northeast 468 539 37,600 -576 Descending Denver Center
Wed 11:47:55 AM 38.5450 -107.1247 55° Northeast 469 540 36,800 -864 Descending Denver Center
Wed 11:48:57 AM 38.6181 -106.9867 56° Northeast 470 541 35,800 -919 Descending Denver Center
Wed 11:49:59 AM 38.6908 -106.8467 56° Northeast 473 544 34,900 -919 Descending Denver Center
Wed 11:51:01 AM 38.7636 -106.7075 56° Northeast 473 544 33,900 -1,065 Descending Denver Center
Wed 11:52:03 AM 38.8386 -106.5669 56° Northeast 478 550 32,700 -1,984 Descending Denver Center
Wed 11:53:05 AM 38.9242 -106.4008 56° Northeast 480 552 29,800 -2,419 Descending Denver Center
Wed 11:54:07 AM 38.9939 -106.2658 56° Northeast 475 547 27,700 -2,032 Descending Denver Center
Wed 11:55:09 AM 39.0653 -106.1286 56° Northeast 466 536 25,600 -2,226 Descending Denver Center
Wed 11:56:11 AM 39.1467 -105.9683 57° Northeast 447 514 23,100 -2,129 Descending Denver Center
Wed 11:57:13 AM 39.2119 -105.8411 56° Northeast 430 495 21,200 -1,839 Descending Denver Center
Wed 11:58:15 AM 39.2728 -105.7233 56° Northeast 400 460 19,300 -1,597 Descending Denver Center
Wed 11:59:17 AM 39.3308 -105.6097 57° Northeast 384 442 17,900 -1,016 Descending Denver Center
Wed 12:00:19 PM 39.3844 -105.5044 57° Northeast 358 412 17,200 -964 Descending Denver Center
Wed 12:01:34 PM 39.4503 -105.3722 57° Northeast 325 374 15,700 -1,358 Descending Denver Center
Wed 12:02:36 PM 39.5006 -105.2672 58° Northeast 320 368 14,100 -1,306 Descending Denver Center
Wed 12:03:38 PM 39.5597 -105.1881 46° Northeast 316 364 13,000 -484 Descending Denver Center
Wed 12:04:40 PM 39.6408 -105.1664 12° North 300 345 13,100 -387 Climbing Denver Center
Wed 12:05:42 PM 39.7161 -105.1467 11° North 261 300 12,200 -871 Descending Denver Center
Wed 12:06:44 PM 39.7817 -105.1297 11° North 243 280 11,300 -919 Descending Denver Center
Wed 12:07:46 PM 39.8403 -105.1028 19° North 219 252 10,300 -968 Descending Denver Center
Wed 12:08:48 PM 39.8419 -105.0286 88° East 203 234 9,300 -629 Descending Denver Center
Wed 12:09:50 PM 39.8419 -104.9564 90° East 200 230 9,000 -677 Descending Denver Center
Wed 12:10:52 PM 39.8417 -104.8806 90° East 196 226 7,900 -1,210 Descending Denver Center
Wed 12:11:54 PM 39.8411 -104.8100 91° East 194 223 6,500 -1,065 Descending Denver Center
Wed 12:12:56 PM 39.8408 -104.7458 90° East 162 186 5,700 -532 Descending Denver Center
Wed 12:13:58 PM 39.8397 -104.7042 92° East 136 157 5,400 -290 Descending Denver Center
Wed 12:15:00 PM 39.8617 -104.6732 North  Level Estimated
Wed 12:22:00 PM 39.8617 -104.6732 161° South  Level Estimated
Wed 12:23:00 PM 39.8617 -104.6732 161° South  Level Estimated

Login

Don't have an account? Register now (free) for customized features, flight alerts, and more!